Flight Track Log - Related Links

Times and Time Zones

All times are in EDT time to prevent confusion due to time zone crossing. See the UAL5848 flight status page for this flight to view local times or setup timezone preferences in your user account.

Time Position Orientation Groundspeed Altitude Reporting Facility
EDT Latitude Longitude Course Direction KTS MPH feet Rate Location/Type
01:56PM 42.0167 -87.9333 90° East 236 272 2,900  Level Chicago TRACON
01:57PM 42.0714 -87.8569 46° Northeast 273 314 5,300 2,000 Climbing Chicago Center
01:59PM 42.0747 -87.7542 87° East 277 319 7,400 1,839 Climbing Chicago Center
02:00PM 42.0633 -87.6461 98° East 294 338 9,100 1,584 Climbing Chicago Center
02:01PM 42.0403 -87.5236 104° East 314 361 10,700 1,440 Climbing Chicago Center
02:02PM 41.9333 -87.0520 90° East  Level FlightAware Approximate
02:02PM 42.0150 -87.4000 105° East 339 390 12,100  Level Chicago Center
02:03PM 41.9867 -87.2581 105° East 363 418 13,100 878 Climbing Chicago Center
02:04PM 41.9811 -87.1111 93° East 393 452 13,900 780 Climbing Chicago Center
02:05PM 41.9781 -86.9603 92° East 399 459 14,700 968 Climbing Chicago Center
02:06PM 41.9736 -86.7931 92° East 411 473 15,900 1,016 Climbing Chicago Center
02:07PM 41.9683 -86.6633 93° East 413 475 16,800 1,113 Climbing Chicago Center
02:08PM 41.9636 -86.4822 92° East 409 471 18,200 1,258 Climbing Chicago Center
02:09PM 41.9597 -86.3325 92° East 406 467 19,400 1,113 Climbing Chicago Center
02:10PM 41.9450 -86.1819 97° East 406 467 20,500 1,016 Climbing Chicago Center
02:11PM 41.9253 -86.0314 100° East 407 468 21,500 968 Climbing Chicago Center
02:12PM 41.9069 -85.8783 99° East 413 475 22,500 919 Climbing Chicago Center
02:13PM 41.8872 -85.7261 100° East 413 475 23,400 968 Climbing Chicago Center
02:14PM 41.8681 -85.5719 99° East 414 476 24,500 968 Climbing Chicago Center
02:15PM 41.8475 -85.4175 100° East 414 476 25,400 1,000 Climbing Chicago Center
02:17PM 41.8114 -85.1397 100° East 414 476 27,200 1,037 Climbing Cleveland Center
02:18PM 41.7911 -84.9881 100° East 413 475 28,200 976 Climbing Cleveland Center
02:19PM 41.7703 -84.8375 100° East 412 474 29,200 976 Climbing Cleveland Center
02:20PM 41.7492 -84.6875 101° East 411 473 30,200 919 Climbing Cleveland Center
02:21PM 41.7289 -84.5381 100° East 411 473 31,100 919 Climbing Cleveland Center
02:22PM 41.7061 -84.3886 101° East 411 473 32,100 1,065 Climbing Cleveland Center
02:23PM 41.6094 -84.2644 136° Southeast 404 465 33,300 1,024 Climbing Cleveland Center
02:24PM 41.5181 -84.1914 149° Southeast 404 465 34,200 829 Climbing Cleveland Center
02:25PM 41.4228 -84.1144 149° Southeast 404 465 35,000 387 Climbing Cleveland Center
02:26PM 41.3158 -84.0275 149° Southeast 413 475 35,000  Level Cleveland Center
02:27PM 41.2083 -83.9425 149° Southeast 439 505 35,000  Level Cleveland Center
02:28PM 41.0828 -83.8431 149° Southeast 461 531 35,000  Level Cleveland Center
02:29PM 40.9683 -83.7514 149° Southeast 476 548 35,000  Level Cleveland Center
02:30PM 40.8744 -83.6781 149° Southeast 483 556 35,000  Level Indianapolis Center
02:31PM 40.7561 -83.5847 149° Southeast 491 565 35,000  Level Indianapolis Center
02:32PM 40.6144 -83.4733 149° Southeast 492 566 35,000 98 Level Indianapolis Center
02:33PM 40.4964 -83.3806 149° Southeast 492 566 35,200 634 Climbing Indianapolis Center
02:34PM 40.3794 -83.2947 151° Southeast 488 562 36,300 871 Climbing Indianapolis Center
02:35PM 40.2525 -83.2547 166° South 472 543 37,000 341 Climbing Indianapolis Center
02:36PM 40.1258 -83.2136 166° South 467 537 37,000  Level Indianapolis Center
02:37PM 39.9953 -83.1728 167° South 472 543 37,000  Level Indianapolis Center
02:38PM 39.8644 -83.1319 167° South 474 545 37,000  Level Indianapolis Center
02:39PM 39.7344 -83.0928 167° South 474 545 37,000  Level Indianapolis Center
02:40PM 39.6058 -83.0544 167° South 474 545 37,000  Level Indianapolis Center
02:41PM 39.4775 -83.0161 167° South 474 545 37,000  Level Indianapolis Center
02:42PM 39.3242 -82.9692 167° South 473 544 37,000  Level Indianapolis Center
02:43PM 39.1969 -82.9317 167° South 472 543 37,000  Level Indianapolis Center
02:44PM 39.0672 -82.8794 163° South 472 543 37,000  Level Indianapolis Center
02:45PM 38.9422 -82.8275 162° South 472 543 37,000  Level Indianapolis Center
02:46PM 38.8183 -82.7767 162° South 470 541 37,000  Level Indianapolis Center
02:47PM 38.6889 -82.7278 164° South 479 551 37,000  Level Indianapolis Center
02:48PM 38.5586 -82.6756 163° South 478 550 37,000  Level Indianapolis Center
02:50PM 38.4297 -82.6258 163° South 478 550 37,000 -146 Level Indianapolis Center
02:51PM 38.3006 -82.5775 164° South 480 552 36,700 -488 Descending Indianapolis Center
02:52PM 38.1444 -82.5344 168° South 487 560 36,000 -341 Descending Indianapolis Center
02:53PM 38.0122 -82.5031 169° South 486 559 36,000  Level Indianapolis Center
02:54PM 37.8786 -82.4708 169° South 486 559 36,000 -98 Level Indianapolis Center
02:55PM 37.7458 -82.4392 169° South 485 558 35,800 -677 Descending Indianapolis Center
02:56PM 37.6106 -82.4067 169° South 487 560 34,600 -878 Descending Indianapolis Center
02:57PM 37.4753 -82.3736 169° South 489 563 34,000 -1,122 Descending Indianapolis Center
02:58PM 37.3425 -82.3417 169° South 488 562 32,300 -2,195 Descending Indianapolis Center
02:59PM 37.2142 -82.3097 169° South 474 545 29,500 -1,610 Descending Indianapolis Center
03:00PM 37.0889 -82.2817 170° South 461 531 29,000 -242 Descending Indianapolis Center
03:01PM 36.9419 -82.2464 169° South 457 526 29,000 -390 Level Indianapolis Center
03:02PM 36.8142 -82.2167 169° South 457 526 28,200 -1,415 Descending Indianapolis Center
03:03PM 36.6822 -82.1869 170° South 470 541 26,100 -2,073 Descending Indianapolis Center
03:04PM 36.5758 -82.1619 169° South 468 539 24,400 -1,167 Descending Atlanta Center
03:05PM 36.4500 -82.1314 169° South 462 532 24,000 -200 Descending Atlanta Center
03:06PM 36.3344 -82.0672 156° South 457 526 24,000  Level Atlanta Center
03:07PM 36.2147 -82.0133 160° South 457 526 24,000 -744 Level Atlanta Center
03:08PM 36.0950 -81.9625 161° South 452 520 22,500 -2,100 Descending Atlanta Center
03:09PM 35.9772 -81.9117 161° South 452 520 19,800 -2,471 Descending Atlanta Center
03:10PM 35.8719 -81.8581 158° South 439 505 17,600 -2,331 Descending Atlanta Center
03:11PM 35.7806 -81.7683 141° Southeast 411 473 15,100 -2,471 Descending Atlanta Center
03:11PM 35.7489 -81.7333 138° Southeast 399 459 14,100 -2,327 Descending Atlanta Center
03:11PM 35.7147 -81.7011 143° Southeast 396 456 13,200 -2,229 Descending Atlanta Center
03:12PM 35.6978 -81.6811 136° Southeast 411 473 12,800 -2,100 Descending Atlanta Center
03:12PM 35.6297 -81.6142 141° Southeast 379 436 11,100 -1,700 Descending Atlanta Center
03:13PM 35.6189 -81.5989 131° Southeast 391 450 11,100 -88 Level Atlanta Center
03:14PM 35.5608 -81.5164 131° Southeast 330 380 11,000 -700 Descending Atlanta Center
03:15PM 35.5111 -81.4314 126° Southeast 301 346 9,700 -1,475 Descending Atlanta Center
03:16PM 35.5008 -81.3450 98° East 284 327 8,000 -1,323 Descending Atlanta Center
03:17PM 35.4817 -81.2358 102° East 277 319 6,900 -992 Descending Atlanta Center
03:18PM 35.4697 -81.1650 102° East 274 315 6,000 -526 Descending Atlanta Center
03:19PM 35.4572 -81.0836 101° East 260 299 5,900 -493 Descending Atlanta Center
03:19PM 35.4547 -81.0608 98° East 225 259 5,400 -1,200 Descending Atlanta Center
03:20PM 35.4267 -81.0211 131° Southeast 231 266 4,700 -906 Descending Atlanta Center
03:21PM 35.3736 -80.9822 149° Southeast 215 247 3,800 -1,056 Descending Atlanta Center
03:22PM 35.2942 -80.9775 177° South 185 213 2,200 -1,000 Descending Atlanta Center
03:23PM 35.2628 -80.9736 174° South 146 168 1,600 -735 Descending Atlanta Center

Login

Don't have an account? Register now (free) for customized features, flight alerts, and more!